Latest Weather Observations for Kalgoorlie-Boulder

IDW60801

Issued at 10:04 am WST Sunday 28 August 2016 (issued every 30 minutes, with the page automatically refreshed every 10 minutes)

About weather observations | Map of weather stations | Latest weather observations for WA | Other Formats
Station Details ID: 012038 Name: KALGOORLIE-BOULDER AIRPORT Lat: -30.78 Lon: 121.45 Height: 365.3 m
Data from the previous 72 hours. | See also: Recent months at Kalgoorlie-Boulder
Date/Time
WST
Temp
°C
App
Temp
°C
Dew
Point
°C
Rel
Hum
%
Delta-T
°C
Wind Press
QNH
hPa
Press
MSL
hPa
Rain since
9am
mm
Dir  Spd
km/h
Gust
km/h
Spd
kts
Gust
kts
28/10:00am 11.3 5.0 5.6 68 2.7 WNW 28 48 15 26 1005.4 - 0.0
28/09:30am 10.7 4.9 6.3 74 2.1 W 26 44 14 24 1005.4 - 0.0
28/09:00am 10.8 5.4 6.2 73 2.2 WNW 24 37 13 20 1005.4 1005.3 2.6
28/08:30am 10.5 5.0 5.9 73 2.2 WNW 24 35 13 19 1005.3 - 2.6
28/08:00am 10.0 4.9 5.8 75 2.0 WNW 22 35 12 19 1005.1 - 2.6
28/07:30am 9.8 4.7 5.8 76 1.9 WNW 22 33 12 18 1005.0 - 2.6
28/07:00am 9.1 4.4 5.9 80 1.5 WNW 20 30 11 16 1004.5 - 2.6
28/06:56am 9.1 4.6 5.9 80 1.5 WNW 19 30 10 16 1004.5 - 2.6
28/06:38am 8.8 3.4 6.5 85 1.1 W 24 35 13 19 1004.4 - 2.6
28/06:30am 9.3 3.8 5.9 79 1.6 WNW 24 35 13 19 1004.2 - 2.6
28/06:00am 9.6 4.8 5.5 75 1.9 WNW 20 33 11 18 1004.0 1003.8 2.6
28/05:30am 10.1 3.7 5.4 72 2.2 WNW 28 48 15 26 1003.6 - 2.6
28/05:00am 10.0 4.5 6.0 76 1.9 WNW 24 43 13 23 1003.3 - 2.6
28/04:30am 10.0 5.3 6.2 77 1.8 WNW 20 35 11 19 1003.0 - 2.6
28/04:00am 9.9 5.4 6.3 78 1.7 WNW 19 32 10 17 1002.9 - 2.6
28/03:30am 10.2 5.4 5.8 74 2.1 WNW 20 35 11 19 1003.0 - 2.6
28/03:00am 10.1 4.5 5.6 73 2.1 WNW 24 37 13 20 1002.8 1002.7 2.6
28/02:30am 10.2 4.2 5.5 72 2.2 WNW 26 43 14 23 1003.0 - 2.6
28/02:00am 10.1 5.3 5.6 73 2.1 WNW 20 33 11 18 1003.3 - 2.6
28/01:30am 10.0 4.7 5.0 71 2.3 WNW 22 39 12 21 1003.3 - 2.6
28/01:00am 10.2 3.8 5.3 71 2.3 W 28 43 15 23 1003.7 - 2.6
28/12:47am 10.7 4.3 5.1 68 2.6 WNW 28 48 15 26 1003.6 - 2.6
28/12:30am 11.1 5.9 5.6 69 2.6 WNW 22 32 12 17 1003.5 - 2.6
28/12:00am 11.5 6.3 7.2 75 2.1 WNW 24 37 13 20 1003.6 1003.4 2.6
 
Date/Time
WST
Temp
°C
App
Temp
°C
Dew
Point
°C
Rel
Hum
%
Delta-T
°C
Wind Press
QNH
hPa
Press
MSL
hPa
Rain since
9am
mm
Dir  Spd
km/h
Gust
km/h
Spd
kts
Gust
kts
27/11:30pm 11.8 8.5 9.5 86 1.2 NW 17 24 9 13 1003.7 - 2.6
27/11:20pm 11.9 8.7 9.8 87 1.1 NW 17 24 9 13 1003.8 - 2.6
27/11:06pm 11.4 8.1 9.7 89 0.9 W 17 24 9 13 1003.7 - 2.6
27/11:00pm 11.8 9.0 9.9 88 1.0 W 15 20 8 11 1003.9 - 2.4
27/10:30pm 12.0 8.5 10.1 88 1.0 NW 19 28 10 15 1004.1 - 2.4
27/10:00pm 11.8 9.1 10.3 90 0.8 NW 15 22 8 12 1004.3 - 2.4
27/09:30pm 11.8 8.7 10.3 90 0.8 NW 17 28 9 15 1004.5 - 2.4
27/09:00pm 11.8 8.4 10.5 92 0.7 NNW 19 28 10 15 1004.9 1004.7 2.4
27/08:30pm 11.7 8.3 10.6 93 0.6 NNW 19 28 10 15 1004.7 - 2.4
27/08:00pm 11.4 8.7 10.5 94 0.5 NNW 15 20 8 11 1004.9 - 2.4
27/07:30pm 11.5 8.5 10.6 94 0.5 NNW 17 20 9 11 1004.8 - 2.4
27/07:00pm 11.9 8.5 10.6 92 0.7 NNW 19 26 10 14 1004.7 - 2.4
27/06:30pm 12.0 8.4 10.7 92 0.7 NNW 20 28 11 15 1004.4 - 2.4
27/06:00pm 12.5 9.0 10.8 89 0.9 NNW 20 33 11 18 1004.4 1004.2 2.4
27/05:44pm 12.8 8.5 10.9 88 1.0 NNW 24 35 13 19 1004.8 - 2.4
27/05:30pm 12.9 9.1 11.0 88 1.0 NNW 22 35 12 19 1004.8 - 2.4
27/05:16pm 12.9 9.8 11.6 92 0.7 N 19 28 10 15 1004.5 - 2.4
27/05:00pm 13.0 9.9 11.7 92 0.7 NNW 19 26 10 14 1004.6 - 2.4
27/04:30pm 12.9 10.2 11.8 93 0.6 NNW 17 24 9 13 1004.4 - 2.4
27/04:00pm 13.1 10.1 11.8 92 0.7 NNW 19 28 10 15 1004.7 - 2.0
27/03:30pm 13.4 9.9 11.0 85 1.3 NNW 20 32 11 17 1004.3 - 1.8
27/03:00pm 13.4 10.6 11.2 86 1.2 N 17 24 9 13 1004.3 1004.1 1.2
27/02:30pm 13.3 10.1 11.3 88 1.1 N 19 28 10 15 1004.6 - 1.2
27/02:00pm 13.5 10.1 10.7 83 1.5 NNW 19 24 10 13 1004.9 - 0.8
27/01:30pm 13.2 8.5 9.4 78 2.0 WNW 24 41 13 22 1005.8 - 0.4
27/01:15pm 13.8 8.9 8.5 70 2.7 WNW 24 35 13 19 1005.9 - 0.0
27/01:00pm 13.7 7.4 8.9 73 2.5 W 32 46 17 25 1005.8 - 0.0
27/12:58pm 13.8 6.8 8.5 70 2.7 W 35 59 19 32 1005.9 - 0.0
27/12:30pm 15.6 8.7 7.1 57 4.3 W 33 61 18 33 1005.7 - 0.0
27/12:17pm 15.6 8.4 7.8 59 4.0 W 35 54 19 29 1005.3 - 0.0
27/12:00pm 15.9 8.7 7.5 57 4.3 W 35 50 19 27 1005.4 1005.3 0.0
27/11:45am 18.4 10.2 6.4 45 6.1 W 39 46 21 25 1004.7 - 0.0
27/11:30am 19.9 12.6 5.4 38 7.3 NW 33 54 18 29 1004.6 - 0.0
27/11:04am 20.2 12.8 5.0 37 7.6 NW 33 52 18 28 1004.7 - 0.0
27/11:00am 20.2 12.4 5.0 37 7.6 WNW 35 50 19 27 1004.9 - 0.0
27/10:44am 20.5 13.3 4.9 36 7.8 WNW 32 50 17 27 1005.0 - 0.0
27/10:30am 20.9 13.5 5.0 35 8.0 WNW 33 46 18 25 1005.2 - 0.0
27/10:07am 20.8 12.9 2.0 28 8.9 NNW 33 52 18 28 1005.5 - 0.0
27/10:00am 20.5 12.7 1.8 29 8.8 NNW 32 48 17 26 1005.5 - 0.0
27/09:30am 20.1 13.0 1.4 28 8.7 NW 28 48 15 26 1005.8 - 0.0
27/09:00am 19.3 11.0 -0.1 27 8.7 NNW 33 52 18 28 1006.1 1005.9 0.0
27/08:55am 19.4 11.7 -0.2 26 8.7 NNW 30 50 16 27 1006.2 - 0.0
27/08:30am 18.8 11.0 -0.7 27 8.6 NNW 30 43 16 23 1006.2 - 0.0
27/08:00am 16.8 10.7 -2.2 27 8.0 N 20 28 11 15 1006.1 - 0.0
27/07:30am 15.0 8.8 -3.0 29 7.3 N 20 28 11 15 1006.5 - 0.0
27/07:00am 14.9 8.6 -3.6 27 7.4 N 20 28 11 15 1006.5 - 0.0
27/06:30am 14.8 8.7 -4.2 26 7.5 NNW 19 30 10 16 1006.6 - 0.0
27/06:00am 14.2 8.5 -4.1 28 7.2 N 17 20 9 11 1006.4 1006.2 0.0
27/05:30am 14.7 8.5 -4.8 25 7.6 NNW 19 26 10 14 1006.4 - 0.0
27/05:00am 15.0 8.6 -5.1 24 7.8 NNW 20 28 11 15 1006.3 - 0.0
27/04:30am 15.4 8.9 -5.6 23 8.1 NNW 20 32 11 17 1006.3 - 0.0
27/04:00am 15.8 8.5 -6.2 21 8.4 N 24 33 13 18 1006.1 - 0.0
27/03:30am 15.8 7.7 -6.7 20 8.5 N 28 41 15 22 1006.6 - 0.0
27/03:00am 15.9 8.6 -6.4 21 8.5 N 24 35 13 19 1006.9 1006.7 0.0
27/02:30am 15.7 9.2 -5.9 22 8.3 N 20 30 11 16 1007.2 - 0.0
27/02:00am 15.7 9.2 -5.5 23 8.2 N 20 26 11 14 1007.5 - 0.0
27/01:30am 16.1 9.6 -5.5 22 8.4 N 20 28 11 15 1008.1 - 0.0
27/01:00am 15.4 9.1 -3.9 26 7.7 N 20 26 11 14 1008.4 - 0.0
27/12:30am 15.0 9.0 -3.0 29 7.3 N 19 24 10 13 1009.4 - 0.0
27/12:00am 14.6 9.5 -2.2 31 6.9 N 15 22 8 12 1010.0 1009.9 0.0
 
Date/Time
WST
Temp
°C
App
Temp
°C
Dew
Point
°C
Rel
Hum
%
Delta-T
°C
Wind Press
QNH
hPa
Press
MSL
hPa
Rain since
9am
mm
Dir  Spd
km/h
Gust
km/h
Spd
kts
Gust
kts
26/11:30pm 14.3 9.2 -1.6 33 6.6 N 15 20 8 11 1010.5 - 0.0
26/11:00pm 14.4 9.4 -1.1 34 6.5 N 15 22 8 12 1010.9 - 0.0
26/10:30pm 14.8 9.4 -1.5 32 6.8 N 17 22 9 12 1011.4 - 0.0
26/10:00pm 14.8 9.4 -1.1 33 6.7 N 17 22 9 12 1011.9 - 0.0
26/09:30pm 14.9 9.2 -0.9 34 6.7 N 19 28 10 15 1012.3 - 0.0
26/09:00pm 14.2 9.4 0.0 38 6.1 N 15 20 8 11 1012.6 1012.5 0.0
26/08:30pm 14.2 9.4 -0.1 37 6.1 N 15 19 8 10 1013.3 - 0.0
26/08:00pm 13.4 9.8 0.6 41 5.5 N 9 13 5 7 1013.7 - 0.0
26/07:30pm 13.9 10.4 1.4 42 5.5 N 9 9 5 5 1013.8 - 0.0
26/07:00pm 14.5 11.4 1.1 40 5.9 NNE 7 9 4 5 1013.7 - 0.0
26/06:30pm 15.0 11.9 1.2 39 6.1 NNE 7 9 4 5 1013.5 - 0.0
26/06:00pm 15.8 12.6 0.6 35 6.7 N 7 9 4 5 1013.6 1013.5 0.0
26/05:30pm 16.3 13.1 0.7 34 6.9 N 7 11 4 6 1013.6 - 0.0
26/05:00pm 17.0 12.9 -0.1 31 7.5 NNE 11 17 6 9 1013.5 - 0.0
26/04:30pm 17.1 12.7 0.1 31 7.5 NNE 13 17 7 9 1013.4 - 0.0
26/04:00pm 17.3 12.4 -0.6 29 7.8 NNE 15 24 8 13 1013.8 - 0.0
26/03:30pm 17.5 12.6 -0.7 29 7.9 N 15 20 8 11 1014.3 - 0.0
26/03:00pm 17.2 11.9 -0.5 30 7.7 N 17 24 9 13 1015.0 1014.9 0.0
26/02:30pm 17.1 11.7 -1.0 29 7.8 N 17 24 9 13 1015.4 - 0.0
26/02:00pm 16.6 10.6 -1.6 29 7.7 N 20 28 11 15 1015.6 - 0.0
26/01:30pm 16.2 10.7 -2.0 28 7.6 N 17 26 9 14 1015.9 - 0.0
26/01:00pm 15.7 9.7 -1.8 30 7.3 N 20 28 11 15 1016.5 - 0.0
26/12:30pm 15.3 8.5 -2.2 30 7.2 N 24 33 13 18 1017.0 - 0.0
26/12:00pm 15.1 8.3 -2.2 30 7.1 N 24 33 13 18 1017.8 1017.7 0.0
26/11:30am 15.3 8.5 -1.8 31 7.1 N 24 30 13 16 1018.8 - 0.0
26/11:00am 14.7 8.3 -1.8 32 6.8 N 22 30 12 16 1019.0 - 0.0
26/10:30am 14.6 7.8 -1.6 32 6.7 N 24 33 13 18 1019.1 - 0.0
26/10:00am 16.1 8.5 -1.9 29 7.5 N 28 41 15 22 1019.9 - 0.0
26/09:30am 15.2 7.2 -2.0 30 7.1 N 30 41 16 22 1020.1 - 0.0
26/09:00am 13.4 7.1 -0.8 37 5.9 N 22 32 12 17 1020.3 1020.3 0.0
26/08:30am 11.9 5.2 -0.8 41 5.2 N 24 32 13 17 1020.7 - 0.0
26/08:00am 10.7 4.9 -0.3 46 4.5 N 20 32 11 17 1021.0 - 0.0
26/07:30am 9.6 3.3 -0.9 48 4.2 N 22 28 12 15 1020.9 - 0.0
26/07:00am 8.8 3.1 -0.4 52 3.7 N 19 24 10 13 1020.7 - 0.0
26/06:30am 7.8 3.4 0.4 59 3.0 N 13 17 7 9 1021.1 - 0.0
26/06:00am 7.3 3.0 1.2 65 2.5 N 13 17 7 9 1020.9 1020.8 0.0
26/05:30am 7.0 3.6 2.0 70 2.1 NNE 9 17 5 9 1020.9 - 0.0
26/05:00am 6.9 3.5 2.1 71 2.0 NNE 9 13 5 7 1021.3 - 0.0
26/04:30am 7.3 4.3 2.3 70 2.1 NNE 7 11 4 6 1021.1 - 0.0
26/04:00am 7.9 4.6 2.5 69 2.3 NNE 9 15 5 8 1021.1 - 0.0
26/03:30am 8.4 4.8 2.8 68 2.4 NNE 11 17 6 9 1021.0 - 0.0
26/03:00am 9.0 5.0 2.8 65 2.7 NNE 13 20 7 11 1021.4 1021.4 0.0
26/02:30am 9.2 4.8 2.5 63 2.9 NNE 15 22 8 12 1021.7 - 0.0
26/02:00am 9.3 4.4 2.3 61 3.0 NE 17 22 9 12 1021.6 - 0.0
26/01:30am 8.9 4.9 2.6 64 2.7 NNE 13 19 7 10 1022.3 - 0.0
26/01:00am 8.7 4.3 2.7 66 2.6 NE 15 22 8 12 1022.7 - 0.0
26/12:30am 9.2 4.4 2.5 63 2.9 NE 17 22 9 12 1022.6 - 0.0
26/12:00am 10.1 5.3 2.8 60 3.2 NE 17 22 9 12 1022.9 1022.9 0.0
 
Date/Time
WST
Temp
°C
App
Temp
°C
Dew
Point
°C
Rel
Hum
%
Delta-T
°C
Wind Press
QNH
hPa
Press
MSL
hPa
Rain since
9am
mm
Dir  Spd
km/h
Gust
km/h
Spd
kts
Gust
kts
25/11:30pm 10.0 5.2 2.4 59 3.3 ENE 17 24 9 13 1022.7 - 0.0
25/11:00pm 10.1 6.0 2.5 59 3.3 NE 13 20 7 11 1023.5 - 0.0
25/10:30pm 10.1 5.7 2.8 60 3.2 ENE 15 20 8 11 1023.2 - 0.0
25/10:00pm 10.6 5.9 2.9 59 3.4 ENE 17 22 9 12 1023.6 - 0.0
25/09:30pm 11.2 6.0 2.5 55 3.8 ENE 19 30 10 16 1023.6 - 0.0
25/09:00pm 11.3 6.1 2.4 54 3.9 E 19 26 10 14 1023.1 1023.1 0.0
25/08:30pm 11.4 6.1 1.9 52 4.1 E 19 28 10 15 1023.6 - 0.0
25/08:00pm 11.5 6.6 2.1 52 4.1 E 17 24 9 13 1023.6 - 0.0
25/07:30pm 11.6 6.7 2.2 52 4.1 E 17 26 9 14 1023.6 - 0.0
25/07:00pm 11.7 7.6 2.1 51 4.2 E 13 20 7 11 1023.6 - 0.0
25/06:30pm 12.5 7.6 1.7 47 4.7 E 17 22 9 12 1023.5 - 0.0
25/06:00pm 12.7 7.4 1.7 47 4.8 E 19 26 10 14 1022.9 1022.9 0.0
25/05:30pm 13.2 8.6 1.5 45 5.1 E 15 20 8 11 1023.1 - 0.0
25/05:00pm 14.1 9.5 1.6 42 5.5 ENE 15 20 8 11 1023.0 - 0.0
25/04:30pm 14.2 9.3 1.8 43 5.5 ENE 17 24 9 13 1023.1 - 0.0
25/04:00pm 14.7 9.4 1.6 41 5.8 ENE 19 28 10 15 1023.0 - 0.0
25/03:30pm 15.2 9.8 1.1 38 6.2 E 19 26 10 14 1023.2 - 0.0
25/03:00pm 14.6 9.0 1.5 41 5.8 E 20 28 11 15 1023.2 1023.2 0.0
25/02:30pm 15.1 9.7 2.5 42 5.7 E 20 26 11 14 1023.4 - 0.0
25/02:00pm 14.3 9.1 2.2 44 5.4 E 19 26 10 14 1023.7 - 0.0
25/01:30pm 13.7 8.3 2.3 46 5.1 E 20 26 11 14 1023.9 - 0.0
25/01:00pm 13.3 7.8 2.0 46 5.0 ENE 20 24 11 13 1024.3 - 0.0
25/12:30pm 13.3 7.8 1.7 45 5.1 ENE 20 32 11 17 1024.6 - 0.0
25/12:00pm 13.4 8.0 2.4 47 4.9 NE 20 32 11 17 1025.2 1025.2 0.0
25/11:30am 12.7 7.4 2.0 48 4.7 ENE 19 26 10 14 1025.9 - 0.0
25/11:00am 12.2 7.2 1.3 47 4.7 ENE 17 26 9 14 1026.3 - 0.0
25/10:30am 12.5 6.9 1.1 45 4.9 E 20 30 11 16 1026.4 - 0.0

Other Formats:

Comma delimited format used in spreadsheet applications
http://www.bom.gov.au/fwo/IDW60801/IDW60801.94637.axf

JavaScript Object Notation format (JSON) in row-major order
http://www.bom.gov.au/fwo/IDW60801/IDW60801.94637.json